Portada
METAR-TAF:

METAR-TAF

Aeroports :

Wilkes County Airport

North Wilkesboro, Carolina del Nord, Estats Units d'Amèrica

latitud: 36-13N, longitud: 081-05W, altitud: 396 m

Observació

L'informe es va fer fa 26 minuts, a les 22:35 UTC
Vent calma
Temperatura 0°C
Humitat 40%
Pressió 1028 hPa
Visibilitat: 16.1 km
Cel clar

METAR: KUKF 132235Z AUTO 00000KT 10SM CLR 00/M12 A3037 RMK AO2

Hora: 18:01 (23:01 UTC)


TAF: manca

Observacions i pronòstics meteorològics de més de 4000 aeroports (METAR i TAF).

Les estacions disponibles són els punts grocs i vermells al mapa.

Posi el ratolí al punt desitjat per veure el nom de l'estació.

Feu clic per veure les observacions i els pronòstics meteorològics.

Per canviar el mapa: feu clic els botons verds amb una creu de color negre per apropar; al botó verd amb un guió per allunyar la imatge; o en les fletxes verdes per a mapes adjacents.


METAR-TAF: